sensor_id;sensor_type;location;lat;lon;timestamp;P1;durP1;ratioP1;P2;durP2;ratioP2
54705;SDS011;40603;48.774;8.916;2023-10-19T00:00:44;9.98;;;6.10;;
54705;SDS011;40603;48.774;8.916;2023-10-19T00:03:10;6.93;;;5.65;;
54705;SDS011;40603;48.774;8.916;2023-10-19T00:05:36;8.52;;;5.78;;
54705;SDS011;40603;48.774;8.916;2023-10-19T00:08:03;7.75;;;5.68;;
54705;SDS011;40603;48.774;8.916;2023-10-19T00:10:38;9.45;;;5.95;;
54705;SDS011;40603;48.774;8.916;2023-10-19T00:13:04;7.93;;;6.25;;
54705;SDS011;40603;48.774;8.916;2023-10-19T00:15:31;15.25;;;6.32;;
54705;SDS011;40603;48.774;8.916;2023-10-19T00:17:59;12.38;;;6.78;;
54705;SDS011;40603;48.774;8.916;2023-10-19T00:20:39;10.10;;;6.32;;
54705;SDS011;40603;48.774;8.916;2023-10-19T00:23:10;10.02;;;6.45;;
54705;SDS011;40603;48.774;8.916;2023-10-19T00:25:38;8.63;;;6.43;;
54705;SDS011;40603;48.774;8.916;2023-10-19T00:28:07;8.80;;;6.40;;
54705;SDS011;40603;48.774;8.916;2023-10-19T00:30:33;10.82;;;6.72;;
54705;SDS011;40603;48.774;8.916;2023-10-19T00:33:01;10.55;;;6.72;;
54705;SDS011;40603;48.774;8.916;2023-10-19T00:35:29;10.82;;;6.30;;
54705;SDS011;40603;48.774;8.916;2023-10-19T00:38:00;8.63;;;5.22;;
54705;SDS011;40603;48.774;8.916;2023-10-19T00:40:55;8.75;;;5.30;;
54705;SDS011;40603;48.774;8.916;2023-10-19T00:43:53;8.50;;;5.28;;
54705;SDS011;40603;48.774;8.916;2023-10-19T00:46:30;8.63;;;5.00;;
54705;SDS011;40603;48.774;8.916;2023-10-19T00:49:08;10.48;;;5.40;;
54705;SDS011;40603;48.774;8.916;2023-10-19T00:51:47;7.78;;;4.55;;
54705;SDS011;40603;48.774;8.916;2023-10-19T00:54:33;5.47;;;4.18;;
54705;SDS011;40603;48.774;8.916;2023-10-19T00:57:04;8.55;;;4.70;;
54705;SDS011;40603;48.774;8.916;2023-10-19T00:59:37;7.88;;;5.60;;
54705;SDS011;40603;48.774;8.916;2023-10-19T01:02:13;8.25;;;4.50;;
54705;SDS011;40603;48.774;8.916;2023-10-19T01:04:43;6.78;;;4.82;;
54705;SDS011;40603;48.774;8.916;2023-10-19T01:07:10;7.43;;;5.03;;
54705;SDS011;40603;48.774;8.916;2023-10-19T01:09:46;9.10;;;5.50;;
54705;SDS011;40603;48.774;8.916;2023-10-19T01:12:12;8.48;;;4.70;;
54705;SDS011;40603;48.774;8.916;2023-10-19T01:15:04;9.85;;;6.05;;
54705;SDS011;40603;48.774;8.916;2023-10-19T01:17:49;9.45;;;5.07;;
54705;SDS011;40603;48.774;8.916;2023-10-19T01:20:22;11.60;;;5.00;;
54705;SDS011;40603;48.774;8.916;2023-10-19T01:22:55;6.90;;;4.70;;
54705;SDS011;40603;48.774;8.916;2023-10-19T01:25:45;7.88;;;4.43;;
54705;SDS011;40603;48.774;8.916;2023-10-19T01:28:20;7.18;;;5.25;;
54705;SDS011;40603;48.774;8.916;2023-10-19T01:31:16;7.70;;;5.55;;
54705;SDS011;40603;48.774;8.916;2023-10-19T01:33:52;6.88;;;4.88;;
54705;SDS011;40603;48.774;8.916;2023-10-19T01:36:21;8.35;;;5.32;;
54705;SDS011;40603;48.774;8.916;2023-10-19T01:38:47;7.32;;;5.18;;
54705;SDS011;40603;48.774;8.916;2023-10-19T01:41:13;9.75;;;5.00;;
54705;SDS011;40603;48.774;8.916;2023-10-19T01:43:42;8.23;;;5.20;;
54705;SDS011;40603;48.774;8.916;2023-10-19T01:46:08;7.10;;;4.72;;
54705;SDS011;40603;48.774;8.916;2023-10-19T01:48:37;9.90;;;5.55;;
54705;SDS011;40603;48.774;8.916;2023-10-19T01:51:04;8.82;;;5.18;;
54705;SDS011;40603;48.774;8.916;2023-10-19T01:53:30;7.53;;;4.82;;
54705;SDS011;40603;48.774;8.916;2023-10-19T01:55:57;9.00;;;4.50;;
54705;SDS011;40603;48.774;8.916;2023-10-19T01:58:26;8.07;;;4.53;;
54705;SDS011;40603;48.774;8.916;2023-10-19T02:00:52;7.20;;;4.18;;
54705;SDS011;40603;48.774;8.916;2023-10-19T02:03:25;11.65;;;6.53;;
54705;SDS011;40603;48.774;8.916;2023-10-19T02:05:57;6.20;;;4.32;;
54705;SDS011;40603;48.774;8.916;2023-10-19T02:08:31;8.20;;;3.97;;
54705;SDS011;40603;48.774;8.916;2023-10-19T02:10:57;10.98;;;4.47;;
54705;SDS011;40603;48.774;8.916;2023-10-19T02:13:22;4.95;;;3.97;;
54705;SDS011;40603;48.774;8.916;2023-10-19T02:15:48;6.90;;;4.22;;
54705;SDS011;40603;48.774;8.916;2023-10-19T02:18:15;6.88;;;3.78;;
54705;SDS011;40603;48.774;8.916;2023-10-19T02:20:42;6.78;;;4.50;;
54705;SDS011;40603;48.774;8.916;2023-10-19T02:25:38;5.47;;;3.65;;
54705;SDS011;40603;48.774;8.916;2023-10-19T02:28:06;6.25;;;4.35;;
54705;SDS011;40603;48.774;8.916;2023-10-19T02:30:32;8.57;;;4.03;;
54705;SDS011;40603;48.774;8.916;2023-10-19T02:32:59;6.40;;;3.90;;
54705;SDS011;40603;48.774;8.916;2023-10-19T02:35:25;7.22;;;3.92;;
54705;SDS011;40603;48.774;8.916;2023-10-19T02:37:51;6.50;;;4.35;;
54705;SDS011;40603;48.774;8.916;2023-10-19T02:40:16;9.20;;;4.80;;
54705;SDS011;40603;48.774;8.916;2023-10-19T02:42:45;6.25;;;3.58;;
54705;SDS011;40603;48.774;8.916;2023-10-19T02:45:12;10.30;;;4.30;;
54705;SDS011;40603;48.774;8.916;2023-10-19T02:47:43;7.70;;;4.38;;
54705;SDS011;40603;48.774;8.916;2023-10-19T02:50:09;10.40;;;4.03;;
54705;SDS011;40603;48.774;8.916;2023-10-19T02:52:38;8.50;;;4.30;;
54705;SDS011;40603;48.774;8.916;2023-10-19T02:55:03;6.95;;;4.38;;
54705;SDS011;40603;48.774;8.916;2023-10-19T02:57:29;6.57;;;4.40;;
54705;SDS011;40603;48.774;8.916;2023-10-19T02:59:56;6.05;;;4.47;;
54705;SDS011;40603;48.774;8.916;2023-10-19T03:02:23;11.35;;;4.50;;
54705;SDS011;40603;48.774;8.916;2023-10-19T03:04:50;7.60;;;4.22;;
54705;SDS011;40603;48.774;8.916;2023-10-19T03:07:16;8.52;;;4.15;;
54705;SDS011;40603;48.774;8.916;2023-10-19T03:09:43;5.70;;;4.57;;
54705;SDS011;40603;48.774;8.916;2023-10-19T03:12:14;8.85;;;4.82;;
54705;SDS011;40603;48.774;8.916;2023-10-19T03:14:40;8.40;;;4.20;;
54705;SDS011;40603;48.774;8.916;2023-10-19T03:17:11;6.47;;;4.60;;
54705;SDS011;40603;48.774;8.916;2023-10-19T03:19:37;7.22;;;4.30;;
54705;SDS011;40603;48.774;8.916;2023-10-19T03:22:03;6.55;;;4.53;;
54705;SDS011;40603;48.774;8.916;2023-10-19T03:24:30;7.15;;;4.18;;
54705;SDS011;40603;48.774;8.916;2023-10-19T03:27:09;7.32;;;4.32;;
54705;SDS011;40603;48.774;8.916;2023-10-19T03:30:02;12.27;;;3.63;;
54705;SDS011;40603;48.774;8.916;2023-10-19T03:32:27;9.30;;;4.30;;
54705;SDS011;40603;48.774;8.916;2023-10-19T03:34:57;8.63;;;4.35;;
54705;SDS011;40603;48.774;8.916;2023-10-19T03:37:24;6.65;;;4.85;;
54705;SDS011;40603;48.774;8.916;2023-10-19T03:39:51;6.15;;;4.60;;
54705;SDS011;40603;48.774;8.916;2023-10-19T03:42:16;11.45;;;4.43;;
54705;SDS011;40603;48.774;8.916;2023-10-19T03:44:42;10.20;;;4.90;;
54705;SDS011;40603;48.774;8.916;2023-10-19T03:47:07;5.68;;;4.10;;
54705;SDS011;40603;48.774;8.916;2023-10-19T03:49:37;6.80;;;4.30;;
54705;SDS011;40603;48.774;8.916;2023-10-19T03:52:03;8.52;;;4.80;;
54705;SDS011;40603;48.774;8.916;2023-10-19T03:54:35;4.85;;;4.15;;
54705;SDS011;40603;48.774;8.916;2023-10-19T03:57:04;8.13;;;4.50;;
54705;SDS011;40603;48.774;8.916;2023-10-19T03:59:31;6.57;;;4.13;;
54705;SDS011;40603;48.774;8.916;2023-10-19T04:01:59;8.50;;;4.15;;
54705;SDS011;40603;48.774;8.916;2023-10-19T04:04:25;6.70;;;4.60;;
54705;SDS011;40603;48.774;8.916;2023-10-19T04:06:50;7.10;;;4.55;;
54705;SDS011;40603;48.774;8.916;2023-10-19T04:09:22;8.15;;;4.78;;
54705;SDS011;40603;48.774;8.916;2023-10-19T04:11:48;7.60;;;4.80;;
54705;SDS011;40603;48.774;8.916;2023-10-19T04:14:14;6.93;;;4.25;;
54705;SDS011;40603;48.774;8.916;2023-10-19T04:16:40;5.15;;;4.05;;
54705;SDS011;40603;48.774;8.916;2023-10-19T04:19:08;10.13;;;4.38;;
54705;SDS011;40603;48.774;8.916;2023-10-19T04:21:35;6.43;;;4.28;;
54705;SDS011;40603;48.774;8.916;2023-10-19T04:24:03;5.75;;;4.60;;
54705;SDS011;40603;48.774;8.916;2023-10-19T04:26:32;7.57;;;4.38;;
54705;SDS011;40603;48.774;8.916;2023-10-19T04:29:02;7.85;;;4.28;;
54705;SDS011;40603;48.774;8.916;2023-10-19T04:31:34;6.47;;;4.43;;
54705;SDS011;40603;48.774;8.916;2023-10-19T04:34:02;9.90;;;4.43;;
54705;SDS011;40603;48.774;8.916;2023-10-19T04:36:32;6.53;;;4.50;;
54705;SDS011;40603;48.774;8.916;2023-10-19T04:38:58;6.22;;;4.30;;
54705;SDS011;40603;48.774;8.916;2023-10-19T04:41:25;7.13;;;4.63;;
54705;SDS011;40603;48.774;8.916;2023-10-19T04:43:52;8.93;;;4.90;;
54705;SDS011;40603;48.774;8.916;2023-10-19T04:46:19;7.50;;;4.88;;
54705;SDS011;40603;48.774;8.916;2023-10-19T04:48:44;6.88;;;5.30;;
54705;SDS011;40603;48.774;8.916;2023-10-19T04:51:10;6.35;;;4.95;;
54705;SDS011;40603;48.774;8.916;2023-10-19T04:53:36;8.38;;;5.18;;
54705;SDS011;40603;48.774;8.916;2023-10-19T04:56:02;10.98;;;5.13;;
54705;SDS011;40603;48.774;8.916;2023-10-19T04:58:29;5.80;;;4.53;;
54705;SDS011;40603;48.774;8.916;2023-10-19T05:00:54;6.93;;;4.72;;
54705;SDS011;40603;48.774;8.916;2023-10-19T05:03:20;8.80;;;4.47;;
54705;SDS011;40603;48.774;8.916;2023-10-19T05:05:46;5.82;;;4.32;;
54705;SDS011;40603;48.774;8.916;2023-10-19T05:08:12;6.63;;;5.00;;
54705;SDS011;40603;48.774;8.916;2023-10-19T05:10:37;8.23;;;5.22;;
54705;SDS011;40603;48.774;8.916;2023-10-19T05:13:03;9.32;;;4.50;;
54705;SDS011;40603;48.774;8.916;2023-10-19T05:15:28;10.30;;;5.38;;
54705;SDS011;40603;48.774;8.916;2023-10-19T05:17:54;6.05;;;4.70;;
54705;SDS011;40603;48.774;8.916;2023-10-19T05:20:19;11.20;;;5.10;;
54705;SDS011;40603;48.774;8.916;2023-10-19T05:22:46;9.07;;;4.80;;
54705;SDS011;40603;48.774;8.916;2023-10-19T05:25:12;8.82;;;4.85;;
54705;SDS011;40603;48.774;8.916;2023-10-19T05:27:37;10.93;;;4.70;;
54705;SDS011;40603;48.774;8.916;2023-10-19T05:30:03;12.05;;;5.18;;
54705;SDS011;40603;48.774;8.916;2023-10-19T05:32:29;9.50;;;5.22;;
54705;SDS011;40603;48.774;8.916;2023-10-19T05:34:55;7.65;;;4.50;;
54705;SDS011;40603;48.774;8.916;2023-10-19T05:37:21;8.65;;;4.35;;
54705;SDS011;40603;48.774;8.916;2023-10-19T05:39:47;7.75;;;4.00;;
54705;SDS011;40603;48.774;8.916;2023-10-19T05:42:12;7.78;;;4.43;;
54705;SDS011;40603;48.774;8.916;2023-10-19T05:44:38;8.60;;;5.72;;
54705;SDS011;40603;48.774;8.916;2023-10-19T05:47:03;10.85;;;7.32;;
54705;SDS011;40603;48.774;8.916;2023-10-19T05:49:28;11.65;;;7.03;;
54705;SDS011;40603;48.774;8.916;2023-10-19T05:51:54;11.65;;;7.22;;
54705;SDS011;40603;48.774;8.916;2023-10-19T05:54:19;7.70;;;5.40;;
54705;SDS011;40603;48.774;8.916;2023-10-19T05:56:44;7.82;;;5.28;;
54705;SDS011;40603;48.774;8.916;2023-10-19T05:59:11;7.97;;;4.70;;
54705;SDS011;40603;48.774;8.916;2023-10-19T06:01:36;7.72;;;4.63;;
54705;SDS011;40603;48.774;8.916;2023-10-19T06:04:02;7.32;;;4.93;;
54705;SDS011;40603;48.774;8.916;2023-10-19T06:06:28;7.25;;;4.10;;
54705;SDS011;40603;48.774;8.916;2023-10-19T06:08:53;8.90;;;4.95;;
54705;SDS011;40603;48.774;8.916;2023-10-19T06:11:19;8.18;;;4.25;;
54705;SDS011;40603;48.774;8.916;2023-10-19T06:13:45;12.15;;;5.43;;
54705;SDS011;40603;48.774;8.916;2023-10-19T06:16:11;10.05;;;5.70;;
54705;SDS011;40603;48.774;8.916;2023-10-19T06:18:36;6.45;;;4.95;;
54705;SDS011;40603;48.774;8.916;2023-10-19T06:21:01;11.52;;;5.53;;
54705;SDS011;40603;48.774;8.916;2023-10-19T06:23:27;6.45;;;4.63;;
54705;SDS011;40603;48.774;8.916;2023-10-19T06:25:53;14.45;;;5.70;;
54705;SDS011;40603;48.774;8.916;2023-10-19T06:28:18;10.00;;;5.60;;
54705;SDS011;40603;48.774;8.916;2023-10-19T06:30:43;11.15;;;5.30;;
54705;SDS011;40603;48.774;8.916;2023-10-19T06:33:10;11.80;;;4.95;;
54705;SDS011;40603;48.774;8.916;2023-10-19T06:35:36;7.68;;;4.80;;
54705;SDS011;40603;48.774;8.916;2023-10-19T06:38:02;9.50;;;4.78;;
54705;SDS011;40603;48.774;8.916;2023-10-19T06:40:33;9.90;;;5.70;;
54705;SDS011;40603;48.774;8.916;2023-10-19T06:43:01;8.88;;;5.50;;
54705;SDS011;40603;48.774;8.916;2023-10-19T06:45:27;9.20;;;6.20;;
54705;SDS011;40603;48.774;8.916;2023-10-19T06:47:54;9.88;;;6.10;;
54705;SDS011;40603;48.774;8.916;2023-10-19T06:50:20;11.48;;;6.47;;
54705;SDS011;40603;48.774;8.916;2023-10-19T06:52:47;14.45;;;6.55;;
54705;SDS011;40603;48.774;8.916;2023-10-19T06:55:13;11.02;;;6.30;;
54705;SDS011;40603;48.774;8.916;2023-10-19T06:57:42;9.20;;;6.53;;
54705;SDS011;40603;48.774;8.916;2023-10-19T07:00:08;9.13;;;6.60;;
54705;SDS011;40603;48.774;8.916;2023-10-19T07:02:41;7.75;;;6.15;;
54705;SDS011;40603;48.774;8.916;2023-10-19T07:05:07;9.63;;;6.22;;
54705;SDS011;40603;48.774;8.916;2023-10-19T07:07:43;8.95;;;5.65;;
54705;SDS011;40603;48.774;8.916;2023-10-19T07:10:09;8.85;;;5.78;;
54705;SDS011;40603;48.774;8.916;2023-10-19T07:12:37;11.88;;;5.45;;
54705;SDS011;40603;48.774;8.916;2023-10-19T07:15:03;10.18;;;5.70;;
54705;SDS011;40603;48.774;8.916;2023-10-19T07:17:32;18.10;;;5.78;;
54705;SDS011;40603;48.774;8.916;2023-10-19T07:19:58;13.00;;;5.80;;
54705;SDS011;40603;48.774;8.916;2023-10-19T07:22:23;8.25;;;5.63;;
54705;SDS011;40603;48.774;8.916;2023-10-19T07:24:50;14.43;;;5.72;;
54705;SDS011;40603;48.774;8.916;2023-10-19T07:27:16;9.45;;;5.10;;
54705;SDS011;40603;48.774;8.916;2023-10-19T07:29:44;9.32;;;4.93;;
54705;SDS011;40603;48.774;8.916;2023-10-19T07:32:09;15.73;;;5.40;;
54705;SDS011;40603;48.774;8.916;2023-10-19T07:34:38;13.13;;;5.45;;
54705;SDS011;40603;48.774;8.916;2023-10-19T07:37:03;8.18;;;4.60;;
54705;SDS011;40603;48.774;8.916;2023-10-19T07:39:29;10.32;;;6.20;;
54705;SDS011;40603;48.774;8.916;2023-10-19T07:41:55;8.40;;;5.50;;
54705;SDS011;40603;48.774;8.916;2023-10-19T07:44:21;11.30;;;6.68;;
54705;SDS011;40603;48.774;8.916;2023-10-19T07:46:47;8.82;;;5.50;;
54705;SDS011;40603;48.774;8.916;2023-10-19T07:49:12;9.43;;;6.70;;
54705;SDS011;40603;48.774;8.916;2023-10-19T07:51:40;12.02;;;5.90;;
54705;SDS011;40603;48.774;8.916;2023-10-19T07:54:10;7.68;;;5.53;;
54705;SDS011;40603;48.774;8.916;2023-10-19T07:56:37;8.55;;;5.68;;
54705;SDS011;40603;48.774;8.916;2023-10-19T07:59:02;10.15;;;6.07;;
54705;SDS011;40603;48.774;8.916;2023-10-19T08:01:27;15.23;;;5.40;;
54705;SDS011;40603;48.774;8.916;2023-10-19T08:03:53;9.13;;;5.75;;
54705;SDS011;40603;48.774;8.916;2023-10-19T08:06:18;12.10;;;6.45;;
54705;SDS011;40603;48.774;8.916;2023-10-19T08:08:44;10.35;;;5.82;;
54705;SDS011;40603;48.774;8.916;2023-10-19T08:11:09;11.05;;;6.30;;
54705;SDS011;40603;48.774;8.916;2023-10-19T08:13:34;23.77;;;6.82;;
54705;SDS011;40603;48.774;8.916;2023-10-19T08:16:00;18.83;;;6.22;;
54705;SDS011;40603;48.774;8.916;2023-10-19T08:18:25;18.17;;;6.13;;
54705;SDS011;40603;48.774;8.916;2023-10-19T08:20:50;11.02;;;5.63;;
54705;SDS011;40603;48.774;8.916;2023-10-19T08:23:16;11.35;;;5.32;;
54705;SDS011;40603;48.774;8.916;2023-10-19T08:25:48;10.00;;;4.45;;
54705;SDS011;40603;48.774;8.916;2023-10-19T08:28:15;7.90;;;4.95;;
54705;SDS011;40603;48.774;8.916;2023-10-19T08:30:41;5.78;;;4.40;;
54705;SDS011;40603;48.774;8.916;2023-10-19T08:33:06;6.82;;;3.90;;
54705;SDS011;40603;48.774;8.916;2023-10-19T08:35:34;8.27;;;4.70;;
54705;SDS011;40603;48.774;8.916;2023-10-19T08:38:00;8.95;;;4.53;;
54705;SDS011;40603;48.774;8.916;2023-10-19T08:40:28;6.10;;;3.95;;
54705;SDS011;40603;48.774;8.916;2023-10-19T08:42:54;5.18;;;3.35;;
54705;SDS011;40603;48.774;8.916;2023-10-19T08:45:20;7.10;;;3.60;;
54705;SDS011;40603;48.774;8.916;2023-10-19T08:50:33;4.00;;;2.70;;
54705;SDS011;40603;48.774;8.916;2023-10-19T08:52:59;4.72;;;3.28;;
54705;SDS011;40603;48.774;8.916;2023-10-19T08:55:27;8.07;;;3.45;;
54705;SDS011;40603;48.774;8.916;2023-10-19T08:57:53;4.15;;;2.88;;
54705;SDS011;40603;48.774;8.916;2023-10-19T09:00:19;6.57;;;3.00;;
54705;SDS011;40603;48.774;8.916;2023-10-19T09:02:47;4.75;;;2.20;;
54705;SDS011;40603;48.774;8.916;2023-10-19T09:05:13;7.18;;;2.25;;
54705;SDS011;40603;48.774;8.916;2023-10-19T09:07:47;3.50;;;2.10;;
54705;SDS011;40603;48.774;8.916;2023-10-19T09:10:16;6.30;;;2.60;;
54705;SDS011;40603;48.774;8.916;2023-10-19T09:12:41;11.15;;;2.88;;
54705;SDS011;40603;48.774;8.916;2023-10-19T09:15:17;6.15;;;3.00;;
54705;SDS011;40603;48.774;8.916;2023-10-19T09:17:46;6.90;;;2.42;;
54705;SDS011;40603;48.774;8.916;2023-10-19T09:20:14;3.97;;;2.45;;
54705;SDS011;40603;48.774;8.916;2023-10-19T09:22:43;4.47;;;2.40;;
54705;SDS011;40603;48.774;8.916;2023-10-19T09:25:09;4.40;;;2.30;;
54705;SDS011;40603;48.774;8.916;2023-10-19T09:27:34;3.92;;;2.15;;
54705;SDS011;40603;48.774;8.916;2023-10-19T09:30:00;5.43;;;2.55;;
54705;SDS011;40603;48.774;8.916;2023-10-19T09:32:27;5.80;;;2.25;;
54705;SDS011;40603;48.774;8.916;2023-10-19T09:34:54;3.63;;;2.55;;
54705;SDS011;40603;48.774;8.916;2023-10-19T09:37:20;3.38;;;2.47;;
54705;SDS011;40603;48.774;8.916;2023-10-19T09:39:46;3.88;;;2.20;;
54705;SDS011;40603;48.774;8.916;2023-10-19T09:42:11;3.72;;;2.20;;
54705;SDS011;40603;48.774;8.916;2023-10-19T09:44:45;4.18;;;2.00;;
54705;SDS011;40603;48.774;8.916;2023-10-19T09:47:34;3.92;;;1.90;;
54705;SDS011;40603;48.774;8.916;2023-10-19T09:50:04;3.55;;;2.00;;
54705;SDS011;40603;48.774;8.916;2023-10-19T09:52:31;4.35;;;2.28;;
54705;SDS011;40603;48.774;8.916;2023-10-19T09:55:03;2.17;;;1.98;;
54705;SDS011;40603;48.774;8.916;2023-10-19T09:57:39;4.82;;;1.88;;
54705;SDS011;40603;48.774;8.916;2023-10-19T10:00:12;4.72;;;2.28;;
54705;SDS011;40603;48.774;8.916;2023-10-19T10:02:43;2.28;;;1.77;;
54705;SDS011;40603;48.774;8.916;2023-10-19T10:10:45;3.30;;;2.05;;
54705;SDS011;40603;48.774;8.916;2023-10-19T10:15:49;3.50;;;2.50;;
54705;SDS011;40603;48.774;8.916;2023-10-19T10:18:15;3.83;;;2.58;;
54705;SDS011;40603;48.774;8.916;2023-10-19T10:20:40;2.67;;;2.40;;
54705;SDS011;40603;48.774;8.916;2023-10-19T10:23:21;3.88;;;2.33;;
54705;SDS011;40603;48.774;8.916;2023-10-19T10:25:53;4.68;;;2.50;;
54705;SDS011;40603;48.774;8.916;2023-10-19T10:28:18;4.18;;;2.22;;
54705;SDS011;40603;48.774;8.916;2023-10-19T10:33:51;4.10;;;2.35;;
54705;SDS011;40603;48.774;8.916;2023-10-19T10:36:19;4.38;;;2.70;;
54705;SDS011;40603;48.774;8.916;2023-10-19T10:38:45;3.38;;;2.15;;
54705;SDS011;40603;48.774;8.916;2023-10-19T10:41:12;6.88;;;2.63;;
54705;SDS011;40603;48.774;8.916;2023-10-19T10:43:54;2.83;;;2.15;;
54705;SDS011;40603;48.774;8.916;2023-10-19T10:46:20;4.50;;;3.13;;
54705;SDS011;40603;48.774;8.916;2023-10-19T10:48:47;4.90;;;2.30;;
54705;SDS011;40603;48.774;8.916;2023-10-19T10:51:17;4.57;;;2.00;;
54705;SDS011;40603;48.774;8.916;2023-10-19T10:53:42;3.97;;;2.28;;
54705;SDS011;40603;48.774;8.916;2023-10-19T10:56:08;4.70;;;2.08;;
54705;SDS011;40603;48.774;8.916;2023-10-19T10:58:33;4.93;;;2.20;;
54705;SDS011;40603;48.774;8.916;2023-10-19T11:00:58;4.82;;;1.77;;
54705;SDS011;40603;48.774;8.916;2023-10-19T11:03:24;3.17;;;1.90;;
54705;SDS011;40603;48.774;8.916;2023-10-19T11:05:54;4.45;;;1.70;;
54705;SDS011;40603;48.774;8.916;2023-10-19T11:08:20;2.33;;;1.50;;
54705;SDS011;40603;48.774;8.916;2023-10-19T11:10:49;11.32;;;2.20;;
54705;SDS011;40603;48.774;8.916;2023-10-19T11:13:16;4.07;;;1.67;;
54705;SDS011;40603;48.774;8.916;2023-10-19T11:15:48;6.90;;;1.98;;
54705;SDS011;40603;48.774;8.916;2023-10-19T11:21:03;5.90;;;1.90;;
54705;SDS011;40603;48.774;8.916;2023-10-19T11:23:50;3.80;;;1.90;;
54705;SDS011;40603;48.774;8.916;2023-10-19T11:26:21;4.22;;;1.70;;
54705;SDS011;40603;48.774;8.916;2023-10-19T11:28:47;2.67;;;1.88;;
54705;SDS011;40603;48.774;8.916;2023-10-19T11:31:22;6.20;;;1.98;;
54705;SDS011;40603;48.774;8.916;2023-10-19T11:33:48;3.03;;;1.88;;
54705;SDS011;40603;48.774;8.916;2023-10-19T11:36:15;5.78;;;1.65;;
54705;SDS011;40603;48.774;8.916;2023-10-19T11:38:42;3.55;;;1.60;;
54705;SDS011;40603;48.774;8.916;2023-10-19T11:41:08;5.85;;;1.60;;
54705;SDS011;40603;48.774;8.916;2023-10-19T11:43:35;2.80;;;1.38;;
54705;SDS011;40603;48.774;8.916;2023-10-19T11:46:01;3.28;;;1.63;;
54705;SDS011;40603;48.774;8.916;2023-10-19T11:48:27;3.38;;;1.80;;
54705;SDS011;40603;48.774;8.916;2023-10-19T11:50:52;5.53;;;2.33;;
54705;SDS011;40603;48.774;8.916;2023-10-19T11:53:18;5.57;;;2.25;;
54705;SDS011;40603;48.774;8.916;2023-10-19T11:55:43;6.70;;;2.15;;
54705;SDS011;40603;48.774;8.916;2023-10-19T11:58:09;5.68;;;2.00;;
54705;SDS011;40603;48.774;8.916;2023-10-19T12:00:38;3.53;;;2.25;;
54705;SDS011;40603;48.774;8.916;2023-10-19T12:03:04;5.35;;;2.65;;
54705;SDS011;40603;48.774;8.916;2023-10-19T12:05:31;4.45;;;2.63;;
54705;SDS011;40603;48.774;8.916;2023-10-19T12:07:56;4.22;;;2.90;;
54705;SDS011;40603;48.774;8.916;2023-10-19T12:10:21;9.80;;;3.60;;
54705;SDS011;40603;48.774;8.916;2023-10-19T12:12:53;5.63;;;3.70;;
54705;SDS011;40603;48.774;8.916;2023-10-19T12:15:18;7.15;;;3.83;;
54705;SDS011;40603;48.774;8.916;2023-10-19T12:17:47;6.47;;;3.90;;
54705;SDS011;40603;48.774;8.916;2023-10-19T12:20:13;6.70;;;3.95;;
54705;SDS011;40603;48.774;8.916;2023-10-19T12:22:39;6.63;;;3.97;;
54705;SDS011;40603;48.774;8.916;2023-10-19T12:25:05;10.88;;;4.15;;
54705;SDS011;40603;48.774;8.916;2023-10-19T12:27:30;6.60;;;3.55;;
54705;SDS011;40603;48.774;8.916;2023-10-19T12:29:56;7.35;;;2.80;;
54705;SDS011;40603;48.774;8.916;2023-10-19T12:32:21;5.13;;;2.58;;
54705;SDS011;40603;48.774;8.916;2023-10-19T12:34:47;3.95;;;2.55;;
54705;SDS011;40603;48.774;8.916;2023-10-19T12:37:18;2.75;;;2.20;;
54705;SDS011;40603;48.774;8.916;2023-10-19T12:39:43;2.88;;;2.30;;
54705;SDS011;40603;48.774;8.916;2023-10-19T12:42:10;3.47;;;2.10;;
54705;SDS011;40603;48.774;8.916;2023-10-19T12:44:36;4.40;;;2.22;;
54705;SDS011;40603;48.774;8.916;2023-10-19T12:47:08;4.35;;;2.50;;
54705;SDS011;40603;48.774;8.916;2023-10-19T12:49:39;4.63;;;2.22;;
54705;SDS011;40603;48.774;8.916;2023-10-19T12:52:05;2.47;;;1.75;;
54705;SDS011;40603;48.774;8.916;2023-10-19T12:54:35;3.67;;;2.10;;
54705;SDS011;40603;48.774;8.916;2023-10-19T12:57:01;2.08;;;1.80;;
54705;SDS011;40603;48.774;8.916;2023-10-19T12:59:28;8.68;;;2.38;;
54705;SDS011;40603;48.774;8.916;2023-10-19T13:01:54;4.53;;;1.73;;
54705;SDS011;40603;48.774;8.916;2023-10-19T13:04:23;2.53;;;1.73;;
54705;SDS011;40603;48.774;8.916;2023-10-19T13:06:49;2.40;;;1.58;;
54705;SDS011;40603;48.774;8.916;2023-10-19T13:09:15;6.53;;;1.80;;
54705;SDS011;40603;48.774;8.916;2023-10-19T13:11:46;2.35;;;1.90;;
54705;SDS011;40603;48.774;8.916;2023-10-19T13:14:14;3.72;;;2.00;;
54705;SDS011;40603;48.774;8.916;2023-10-19T13:16:40;4.40;;;2.00;;
54705;SDS011;40603;48.774;8.916;2023-10-19T13:19:06;5.15;;;2.40;;
54705;SDS011;40603;48.774;8.916;2023-10-19T13:21:38;3.38;;;2.10;;
54705;SDS011;40603;48.774;8.916;2023-10-19T13:24:04;2.75;;;1.92;;
54705;SDS011;40603;48.774;8.916;2023-10-19T13:26:31;4.60;;;1.95;;
54705;SDS011;40603;48.774;8.916;2023-10-19T13:28:56;2.28;;;1.48;;
54705;SDS011;40603;48.774;8.916;2023-10-19T13:31:22;3.53;;;1.60;;
54705;SDS011;40603;48.774;8.916;2023-10-19T13:33:47;3.20;;;1.77;;
54705;SDS011;40603;48.774;8.916;2023-10-19T13:36:13;3.17;;;2.17;;
54705;SDS011;40603;48.774;8.916;2023-10-19T13:38:38;2.03;;;1.70;;
54705;SDS011;40603;48.774;8.916;2023-10-19T13:41:04;4.82;;;2.00;;
54705;SDS011;40603;48.774;8.916;2023-10-19T13:43:32;2.70;;;1.70;;
54705;SDS011;40603;48.774;8.916;2023-10-19T13:45:58;2.63;;;1.83;;
54705;SDS011;40603;48.774;8.916;2023-10-19T13:48:24;5.68;;;1.95;;
54705;SDS011;40603;48.774;8.916;2023-10-19T13:50:50;3.63;;;1.92;;
54705;SDS011;40603;48.774;8.916;2023-10-19T13:53:17;4.78;;;1.90;;
54705;SDS011;40603;48.774;8.916;2023-10-19T13:55:43;2.30;;;2.10;;
54705;SDS011;40603;48.774;8.916;2023-10-19T13:58:09;3.13;;;1.83;;
54705;SDS011;40603;48.774;8.916;2023-10-19T14:00:34;4.82;;;2.92;;
54705;SDS011;40603;48.774;8.916;2023-10-19T14:03:00;4.65;;;2.30;;
54705;SDS011;40603;48.774;8.916;2023-10-19T14:05:29;4.35;;;2.10;;
54705;SDS011;40603;48.774;8.916;2023-10-19T14:08:01;3.88;;;2.13;;
54705;SDS011;40603;48.774;8.916;2023-10-19T14:10:26;2.42;;;2.10;;
54705;SDS011;40603;48.774;8.916;2023-10-19T14:12:53;2.92;;;2.28;;
54705;SDS011;40603;48.774;8.916;2023-10-19T14:15:19;5.30;;;2.40;;
54705;SDS011;40603;48.774;8.916;2023-10-19T14:17:45;5.47;;;2.25;;
54705;SDS011;40603;48.774;8.916;2023-10-19T14:20:12;4.75;;;2.40;;
54705;SDS011;40603;48.774;8.916;2023-10-19T14:22:39;6.45;;;2.53;;
54705;SDS011;40603;48.774;8.916;2023-10-19T14:25:05;5.95;;;2.28;;
54705;SDS011;40603;48.774;8.916;2023-10-19T14:27:33;3.70;;;2.30;;
54705;SDS011;40603;48.774;8.916;2023-10-19T14:29:59;7.75;;;3.08;;
54705;SDS011;40603;48.774;8.916;2023-10-19T14:32:25;3.80;;;2.58;;
54705;SDS011;40603;48.774;8.916;2023-10-19T14:34:51;3.75;;;2.58;;
54705;SDS011;40603;48.774;8.916;2023-10-19T14:37:18;4.07;;;2.75;;
54705;SDS011;40603;48.774;8.916;2023-10-19T14:39:43;8.95;;;3.20;;
54705;SDS011;40603;48.774;8.916;2023-10-19T14:42:09;6.05;;;3.35;;
54705;SDS011;40603;48.774;8.916;2023-10-19T14:44:34;5.68;;;3.58;;
54705;SDS011;40603;48.774;8.916;2023-10-19T14:46:59;7.32;;;3.33;;
54705;SDS011;40603;48.774;8.916;2023-10-19T14:49:25;4.82;;;3.13;;
54705;SDS011;40603;48.774;8.916;2023-10-19T14:51:50;6.07;;;3.28;;
54705;SDS011;40603;48.774;8.916;2023-10-19T14:54:16;4.95;;;3.17;;
54705;SDS011;40603;48.774;8.916;2023-10-19T14:56:42;5.60;;;3.38;;
54705;SDS011;40603;48.774;8.916;2023-10-19T14:59:07;8.70;;;3.55;;
54705;SDS011;40603;48.774;8.916;2023-10-19T15:01:33;5.82;;;3.50;;
54705;SDS011;40603;48.774;8.916;2023-10-19T15:03:58;4.75;;;3.20;;
54705;SDS011;40603;48.774;8.916;2023-10-19T15:06:23;6.38;;;3.45;;
54705;SDS011;40603;48.774;8.916;2023-10-19T15:08:49;5.32;;;3.08;;